Time;durP1;ratioP1;P1;durP2;ratioP2;P2;SDS_P1;SDS_P2;PMS_P1;PMS_P2;Temp;Humidity;BMP_temperature;BMP_pressure;BME280_temperature;BME280_humidity;BME280_pressure;Samples;Min_cycle;Max_cycle;Signal;HPM_P1;HPM_P2
2023/01/12 00:02:05;;;;;;;4.00;1.40;;;7.20;1.00;;;;;;5090747;28;20444;-73
2023/01/12 00:04:31;;;;;;;3.13;1.10;;;7.30;18.40;;;;;;5091667;28;20453;-73
2023/01/12 00:06:58;;;;;;;1.30;0.97;;;7.10;1.00;;;;;;5091221;28;20539;-73
2023/01/12 00:09:27;;;;;;;1.63;0.83;;;7.10;1.00;;;;;;5091029;28;20451;-73
2023/01/12 00:11:54;;;;;;;1.10;0.60;;;7.00;46.30;;;;;;5089916;28;20895;-73
2023/01/12 00:14:20;;;;;;;1.20;0.90;;;7.10;32.90;;;;;;5090959;28;20497;-73
2023/01/12 00:16:47;;;;;;;1.63;0.77;;;7.00;23.80;;;;;;5091032;28;20818;-73
2023/01/12 00:19:15;;;;;;;0.80;0.50;;;7.00;45.10;;;;;;5090649;28;20451;-72
2023/01/12 00:21:57;;;;;;;1.07;0.80;;;7.00;95.90;;;;;;5090968;28;20444;-73
2023/01/12 00:24:27;;;;;;;2.50;0.93;;;7.00;99.90;;;;;;5090937;28;21063;-73
2023/01/12 00:26:55;;;;;;;1.97;0.90;;;7.00;45.60;;;;;;5077492;28;20953;-74
2023/01/12 00:29:23;;;;;;;1.03;0.67;;;7.00;99.90;;;;;;5090777;28;20459;-73
2023/01/12 00:31:52;;;;;;;1.93;0.67;;;7.00;99.90;;;;;;5077737;28;20454;-73
2023/01/12 00:34:19;;;;;;;1.80;0.80;;;7.00;99.90;;;;;;5090288;28;20482;-73
2023/01/12 00:36:46;;;;;;;3.57;1.23;;;7.10;97.30;;;;;;5091427;28;20445;-74
2023/01/12 00:39:13;;;;;;;2.57;0.87;;;7.10;99.90;;;;;;5090547;28;20504;-73
2023/01/12 00:47:13;;;;;;;1.00;0.60;;;7.30;1.00;;;;;;5090454;28;20769;-73
2023/01/12 00:49:40;;;;;;;1.90;0.60;;;7.40;1.00;;;;;;5077810;28;20447;-73
2023/01/12 00:52:08;;;;;;;2.53;0.93;;;7.40;1.00;;;;;;5089772;28;20455;-73
2023/01/12 00:54:35;;;;;;;1.93;0.80;;;7.50;1.00;;;;;;5090989;28;20490;-73
2023/01/12 00:57:04;;;;;;;1.20;0.80;;;7.50;99.90;;;;;;5091046;28;20444;-74
2023/01/12 00:59:31;;;;;;;7.47;1.27;;;7.60;99.90;;;;;;5091266;28;20504;-73
2023/01/12 01:01:58;;;;;;;2.50;0.73;;;7.60;99.90;;;;;;5090436;28;20820;-73
2023/01/12 01:04:25;;;;;;;1.13;0.67;;;7.60;99.90;;;;;;5090347;28;20461;-73
2023/01/12 01:06:52;;;;;;;1.23;0.70;;;7.60;99.90;;;;;;5090813;28;20455;-73
2023/01/12 01:09:19;;;;;;;3.03;1.00;;;7.70;99.90;;;;;;5090399;28;20447;-73
2023/01/12 01:11:46;;;;;;;2.47;1.67;;;7.70;99.90;;;;;;5090157;28;20878;-73
2023/01/12 01:14:14;;;;;;;0.80;0.57;;;7.70;99.90;;;;;;5090272;28;20479;-72
2023/01/12 01:16:41;;;;;;;1.47;1.00;;;7.80;12.40;;;;;;5090433;28;20460;-73
2023/01/12 01:19:08;;;;;;;1.70;0.60;;;7.70;99.90;;;;;;5090228;28;20475;-73
2023/01/12 01:21:35;;;;;;;3.40;1.47;;;7.80;99.90;;;;;;5090400;28;20451;-73
2023/01/12 01:24:02;;;;;;;4.40;0.83;;;7.70;99.90;;;;;;5093108;28;20462;-73
2023/01/12 01:26:30;;;;;;;5.43;1.27;;;7.70;99.90;;;;;;5094222;28;20445;-73
2023/01/12 01:28:57;;;;;;;2.53;1.50;;;7.70;99.90;;;;;;5094411;28;20810;-73
2023/01/12 01:31:27;;;;;;;2.50;0.50;;;7.60;99.90;;;;;;5092893;28;20466;-73
2023/01/12 01:33:54;;;;;;;1.87;0.67;;;7.60;99.90;;;;;;5094281;28;20486;-73
2023/01/12 01:36:21;;;;;;;2.50;0.77;;;7.60;99.90;;;;;;5093262;28;20447;-74
2023/01/12 01:38:49;;;;;;;1.73;1.37;;;7.60;99.90;;;;;;5094032;28;20462;-73
2023/01/12 01:41:19;;;;;;;0.90;0.60;;;7.60;99.90;;;;;;5093054;28;20448;-72
2023/01/12 01:43:55;;;;;;;1.83;0.80;;;7.60;99.90;;;;;;5093906;28;20502;-72
2023/01/12 01:46:44;;;;;;;0.90;0.67;;;7.60;99.90;;;;;;5093420;28;20448;-73
2023/01/12 01:49:28;;;;;;;6.93;1.30;;;7.60;99.90;;;;;;5093139;28;20546;-72
2023/01/12 01:51:59;;;;;;;11.07;1.50;;;7.60;99.90;;;;;;5093943;28;20466;-73
2023/01/12 01:54:28;;;;;;;1.63;0.50;;;7.80;99.90;;;;;;5093289;28;20479;-73
2023/01/12 01:56:57;;;;;;;4.03;0.80;;;7.80;1.00;;;;;;5093515;28;20459;-73
2023/01/12 01:59:26;;;;;;;7.13;1.17;;;7.80;1.00;;;;;;5079922;28;20525;-73
2023/01/12 02:01:54;;;;;;;1.53;1.17;;;7.90;1.00;;;;;;5093349;28;20471;-74
2023/01/12 02:04:24;;;;;;;4.17;1.63;;;8.00;1.00;;;;;;5093343;28;20925;-73
2023/01/12 02:06:51;;;;;;;2.47;0.70;;;7.90;1.00;;;;;;5093665;28;20448;-73
2023/01/12 02:09:21;;;;;;;1.53;0.60;;;7.90;99.90;;;;;;5092954;28;20453;-73
2023/01/12 02:17:31;;;;;;;2.90;0.87;;;7.80;1.00;;;;;;5079737;28;20431;-73
2023/01/12 02:20:32;;;;;;;2.80;1.00;;;7.90;99.90;;;;;;5093272;28;20431;-73
2023/01/12 02:23:24;;;;;;;1.33;1.10;;;8.00;99.90;;;;;;5093396;28;20490;-73
2023/01/12 02:26:15;;;;;;;0.70;0.60;;;7.90;99.90;;;;;;5090234;28;20456;-73
2023/01/12 02:29:12;;;;;;;1.70;0.93;;;8.00;1.00;;;;;;5080844;28;20447;-73
2023/01/12 02:31:51;;;;;;;1.70;0.80;;;8.10;1.00;;;;;;5092453;28;20952;-73
2023/01/12 02:34:28;;;;;;;2.50;1.07;;;8.00;1.00;;;;;;5092172;28;20494;-73
2023/01/12 02:37:05;;;;;;;0.90;0.60;;;8.00;1.00;;;;;;5092718;28;20935;-73
2023/01/12 02:39:39;;;;;;;2.40;0.90;;;8.00;1.00;;;;;;5093309;28;20445;-73
2023/01/12 02:45:02;;;;;;;1.73;0.53;;;8.00;87.00;;;;;;5080849;28;20415;-73
2023/01/12 02:47:37;;;;;;;11.50;1.70;;;8.00;94.30;;;;;;5092546;28;20444;-73
2023/01/12 02:50:09;;;;;;;1.47;1.13;;;7.90;31.40;;;;;;5092441;28;20449;-72
2023/01/12 02:52:36;;;;;;;3.43;1.07;;;7.90;99.90;;;;;;5092888;28;20449;-73
2023/01/12 02:55:04;;;;;;;1.63;0.67;;;7.80;99.90;;;;;;5092922;28;20846;-73
2023/01/12 02:57:33;;;;;;;2.30;0.70;;;7.80;99.90;;;;;;5092828;28;20782;-73
2023/01/12 03:00:02;;;;;;;1.00;0.67;;;7.90;99.90;;;;;;5092367;28;20449;-73
2023/01/12 03:02:31;;;;;;;3.03;0.90;;;7.80;1.00;;;;;;5092321;28;20451;-73
2023/01/12 03:04:58;;;;;;;2.40;1.00;;;7.70;1.00;;;;;;5092531;28;20914;-73
2023/01/12 03:07:34;;;;;;;1.37;0.80;;;7.60;1.00;;;;;;5091716;28;20456;-73
2023/01/12 03:10:16;;;;;;;1.00;0.87;;;7.60;1.00;;;;;;5091946;28;20439;-73
2023/01/12 03:12:44;;;;;;;4.50;1.47;;;7.70;99.90;;;;;;5092290;28;20447;-73
2023/01/12 03:15:15;;;;;;;1.70;0.80;;;7.60;1.00;;;;;;5091687;28;20924;-73
2023/01/12 03:17:49;;;;;;;7.60;1.20;;;7.60;1.00;;;;;;5092376;28;20448;-73
2023/01/12 03:20:21;;;;;;;4.73;0.97;;;7.60;1.00;;;;;;5091517;28;20452;-73
2023/01/12 03:22:51;;;;;;;0.90;0.67;;;7.70;1.00;;;;;;5092470;28;20448;-73
2023/01/12 03:25:18;;;;;;;2.38;0.68;;;7.60;8.80;;;;;;5077556;28;20916;-73
2023/01/12 03:27:49;;;;;;;5.63;1.13;;;7.60;99.90;;;;;;5092043;28;20206;-73
2023/01/12 03:30:20;;;;;;;3.00;0.87;;;7.50;1.00;;;;;;5079016;28;20458;-73
2023/01/12 03:32:51;;;;;;;2.10;0.80;;;7.50;99.90;;;;;;5093052;28;20559;-73
2023/01/12 03:35:20;;;;;;;2.13;1.10;;;7.50;99.90;;;;;;5093899;28;20483;-73
2023/01/12 03:37:54;;;;;;;4.93;0.77;;;7.50;99.90;;;;;;5095796;28;20443;-73
2023/01/12 03:40:23;;;;;;;1.90;0.50;;;7.50;99.90;;;;;;5094886;28;20493;-73
2023/01/12 03:42:55;;;;;;;2.47;1.30;;;7.40;1.00;;;;;;5096426;28;20463;-72
2023/01/12 03:45:30;;;;;;;1.13;0.87;;;7.60;99.90;;;;;;5096634;28;20457;-73
2023/01/12 03:48:07;;;;;;;2.17;0.80;;;7.50;99.90;;;;;;5098967;28;20476;-73
2023/01/12 03:50:41;;;;;;;1.70;1.57;;;7.40;1.00;;;;;;5098648;28;20455;-72
2023/01/12 03:53:10;;;;;;;1.67;0.77;;;7.50;99.90;;;;;;5098696;28;20515;-72
2023/01/12 03:55:38;;;;;;;1.20;0.70;;;7.60;99.90;;;;;;5100317;28;20459;-72
2023/01/12 03:58:05;;;;;;;2.20;0.80;;;7.50;99.90;;;;;;5096057;28;20500;-72
2023/01/12 04:00:32;;;;;;;1.30;0.80;;;7.70;99.90;;;;;;5092286;28;20824;-72
2023/01/12 04:03:08;;;;;;;5.07;1.70;;;7.70;1.00;;;;;;5092274;28;20470;-72
2023/01/12 04:05:35;;;;;;;1.30;0.60;;;7.70;49.20;;;;;;5092074;28;20444;-72
2023/01/12 04:08:02;;;;;;;2.07;1.00;;;7.80;22.80;;;;;;5092029;28;20445;-72
2023/01/12 04:10:29;;;;;;;1.40;0.70;;;7.90;1.00;;;;;;5091023;28;20535;-72
2023/01/12 04:12:56;;;;;;;0.80;0.70;;;7.80;1.00;;;;;;5091536;28;20466;-72
2023/01/12 04:15:23;;;;;;;2.30;1.07;;;7.80;1.00;;;;;;5090921;28;20837;-72
2023/01/12 04:17:50;;;;;;;3.37;0.80;;;7.80;1.00;;;;;;5091518;28;20463;-73
2023/01/12 04:20:18;;;;;;;3.80;0.83;;;7.90;64.10;;;;;;5090161;28;20900;-72
2023/01/12 04:22:45;;;;;;;5.47;0.60;;;8.00;1.00;;;;;;5091224;28;20944;-72
2023/01/12 04:25:13;;;;;;;2.30;0.60;;;8.10;99.90;;;;;;5090877;28;20448;-72
2023/01/12 04:27:46;;;;;;;3.57;1.70;;;8.10;99.90;;;;;;5091185;28;20451;-72
2023/01/12 04:30:14;;;;;;;4.17;1.37;;;8.10;99.90;;;;;;5077104;28;20452;-72
2023/01/12 04:32:41;;;;;;;5.13;0.97;;;8.10;99.90;;;;;;5091134;28;20461;-72
2023/01/12 04:35:10;;;;;;;5.80;1.53;;;8.10;99.90;;;;;;5090344;28;20479;-72
2023/01/12 04:37:39;;;;;;;1.23;0.77;;;8.10;99.90;;;;;;5091162;28;20445;-72
2023/01/12 04:40:07;;;;;;;0.90;0.60;;;8.00;1.00;;;;;;5090343;28;20452;-72
2023/01/12 04:45:18;;;;;;;2.10;1.27;;;8.10;1.00;;;;;;5090613;28;20451;-72
2023/01/12 04:47:45;;;;;;;2.43;0.77;;;8.10;1.00;;;;;;5091042;28;20460;-72
2023/01/12 04:50:11;;;;;;;2.97;0.73;;;8.10;1.00;;;;;;5090187;28;20448;-72
2023/01/12 04:52:40;;;;;;;1.33;0.80;;;8.20;99.90;;;;;;5090723;28;20452;-73
2023/01/12 04:55:07;;;;;;;2.60;0.63;;;8.20;99.90;;;;;;5090495;28;20484;-72
2023/01/12 04:57:34;;;;;;;7.93;1.47;;;8.10;1.00;;;;;;5090677;28;20455;-72
2023/01/12 05:00:01;;;;;;;2.10;1.03;;;8.20;99.90;;;;;;5094781;28;20452;-72
2023/01/12 05:02:28;;;;;;;0.77;0.50;;;8.10;99.90;;;;;;5094033;28;20539;-72
2023/01/12 05:04:55;;;;;;;1.10;0.80;;;8.20;1.00;;;;;;5094900;28;20455;-72
2023/01/12 05:07:22;;;;;;;1.03;0.80;;;8.20;1.00;;;;;;5094692;28;20452;-72
2023/01/12 05:12:34;;;;;;;1.90;0.80;;;8.20;1.00;;;;;;5082341;28;20529;-72
2023/01/12 05:15:02;;;;;;;3.03;1.30;;;8.10;1.00;;;;;;5094682;28;20487;-72
2023/01/12 05:17:30;;;;;;;5.43;1.37;;;8.20;99.90;;;;;;5094330;28;20447;-72
2023/01/12 05:19:57;;;;;;;1.23;0.70;;;8.30;99.90;;;;;;5094218;28;20456;-72
2023/01/12 05:22:24;;;;;;;3.40;1.00;;;8.30;62.80;;;;;;5094112;28;20663;-72
2023/01/12 05:24:52;;;;;;;2.00;1.77;;;8.30;43.50;;;;;;5094436;28;20806;-72
2023/01/12 05:27:19;;;;;;;2.10;0.97;;;8.40;21.80;;;;;;5093915;28;20434;-72
2023/01/12 05:29:45;;;;;;;2.50;0.70;;;8.50;1.00;;;;;;5093714;28;20448;-72
2023/01/12 05:32:12;;;;;;;3.30;0.80;;;8.50;1.00;;;;;;5093819;28;20799;-72
2023/01/12 05:34:40;;;;;;;0.90;0.50;;;8.50;1.00;;;;;;5094260;28;20506;-72
2023/01/12 05:37:07;;;;;;;4.00;1.00;;;8.50;1.00;;;;;;5093802;28;20452;-72
2023/01/12 05:39:33;;;;;;;2.30;1.00;;;8.50;1.00;;;;;;5094075;28;20943;-72
2023/01/12 05:44:46;;;;;;;1.73;0.87;;;8.60;1.00;;;;;;5093809;28;20472;-72
2023/01/12 05:47:13;;;;;;;3.63;1.10;;;8.50;1.00;;;;;;5093193;28;20539;-72
2023/01/12 05:49:40;;;;;;;1.63;0.60;;;8.60;1.00;;;;;;5093265;28;20947;-72
2023/01/12 05:52:06;;;;;;;1.60;0.70;;;8.50;1.00;;;;;;5093930;28;20932;-72
2023/01/12 05:54:33;;;;;;;1.30;0.80;;;8.60;1.00;;;;;;5093972;28;20490;-72
2023/01/12 05:57:01;;;;;;;4.90;1.60;;;8.60;1.00;;;;;;5093780;28;20453;-72
2023/01/12 05:59:28;;;;;;;1.67;0.87;;;8.50;1.00;;;;;;5079610;28;20455;-72
2023/01/12 06:01:55;;;;;;;3.43;1.10;;;8.50;1.00;;;;;;5093403;28;20820;-72
2023/01/12 06:04:22;;;;;;;2.80;0.83;;;8.50;1.00;;;;;;5092828;28;20962;-72
2023/01/12 06:06:48;;;;;;;4.07;1.27;;;8.40;1.00;;;;;;5093359;28;20456;-72
2023/01/12 06:09:16;;;;;;;1.77;0.70;;;8.40;1.00;;;;;;5092027;28;20940;-72
2023/01/12 06:14:28;;;;;;;4.43;0.93;;;8.30;5.00;;;;;;5092989;28;20472;-71
2023/01/12 06:16:55;;;;;;;2.20;1.30;;;8.40;7.50;;;;;;5093404;28;20451;-72
2023/01/12 06:19:21;;;;;;;3.23;0.93;;;8.40;1.00;;;;;;5092824;28;20470;-71
2023/01/12 06:21:48;;;;;;;1.40;0.73;;;8.40;1.00;;;;;;5092963;28;20456;-72
2023/01/12 06:24:15;;;;;;;5.03;0.80;;;8.40;1.00;;;;;;5092521;28;20460;-72
2023/01/12 06:26:43;;;;;;;1.30;0.80;;;8.30;98.80;;;;;;5093184;28;20447;-73
2023/01/12 06:29:10;;;;;;;1.83;1.00;;;8.30;99.90;;;;;;5092639;28;20463;-72
2023/01/12 06:31:39;;;;;;;2.50;0.80;;;8.40;91.40;;;;;;5092456;28;20813;-72
2023/01/12 06:34:07;;;;;;;3.90;0.77;;;8.40;1.00;;;;;;5092624;28;20448;-72
2023/01/12 06:36:34;;;;;;;2.87;1.33;;;8.40;1.00;;;;;;5093326;28;20452;-73
2023/01/12 06:39:01;;;;;;;1.23;0.77;;;8.40;76.30;;;;;;5093305;28;20457;-73
2023/01/12 06:44:17;;;;;;;2.07;0.67;;;8.30;99.90;;;;;;5076335;28;20480;-73
2023/01/12 06:46:45;;;;;;;1.23;1.13;;;8.30;99.90;;;;;;5093127;28;20445;-72
2023/01/12 06:49:12;;;;;;;1.43;1.17;;;8.30;99.90;;;;;;5092047;28;20931;-72
2023/01/12 06:51:39;;;;;;;4.23;1.03;;;8.40;99.90;;;;;;5092605;28;20445;-72
2023/01/12 06:54:06;;;;;;;4.03;1.13;;;8.30;99.90;;;;;;5092080;28;20445;-72
2023/01/12 06:56:33;;;;;;;5.10;1.00;;;8.30;99.90;;;;;;5092583;28;20532;-72
2023/01/12 06:59:00;;;;;;;2.30;1.07;;;8.40;99.90;;;;;;5092632;28;20445;-72
2023/01/12 07:01:26;;;;;;;5.03;1.27;;;8.40;99.90;;;;;;5091628;28;20986;-72
2023/01/12 07:03:55;;;;;;;3.27;1.07;;;8.40;99.90;;;;;;5092584;28;20471;-73
2023/01/12 07:06:21;;;;;;;3.53;1.73;;;8.40;99.90;;;;;;5091779;28;20963;-72
2023/01/12 07:08:48;;;;;;;1.93;0.60;;;8.50;99.90;;;;;;5092440;28;20452;-72
2023/01/12 07:11:15;;;;;;;2.73;0.90;;;8.50;5.10;;;;;;5091632;28;20468;-72
2023/01/12 07:13:42;;;;;;;2.30;0.80;;;8.60;15.10;;;;;;5092397;28;20460;-72
2023/01/12 07:16:09;;;;;;;1.53;0.70;;;8.50;99.90;;;;;;5091915;28;20484;-72
2023/01/12 07:18:36;;;;;;;3.77;0.80;;;8.60;1.00;;;;;;5091919;28;20440;-72
2023/01/12 07:21:06;;;;;;;3.87;0.70;;;8.60;1.00;;;;;;5091714;28;20452;-72
2023/01/12 07:23:33;;;;;;;0.90;0.70;;;8.60;1.00;;;;;;5092350;28;20444;-72
2023/01/12 07:26:00;;;;;;;5.30;0.80;;;8.60;1.00;;;;;;5092421;28;20453;-72
2023/01/12 07:28:30;;;;;;;1.10;0.73;;;8.70;1.00;;;;;;5091267;28;20460;-72
2023/01/12 07:31:00;;;;;;;1.53;0.63;;;8.80;99.90;;;;;;5091819;28;20461;-73
2023/01/12 07:33:27;;;;;;;9.63;1.13;;;8.80;99.90;;;;;;5077950;28;20444;-73
2023/01/12 07:35:57;;;;;;;1.80;1.27;;;8.70;99.90;;;;;;5091961;28;21022;-73
2023/01/12 07:38:26;;;;;;;2.77;1.30;;;8.80;99.90;;;;;;5078198;28;20847;-72
2023/01/12 07:40:52;;;;;;;2.00;1.17;;;8.80;99.90;;;;;;5091444;28;20809;-72
2023/01/12 07:43:19;;;;;;;0.97;0.80;;;8.90;99.90;;;;;;5091252;28;20476;-72
2023/01/12 07:45:46;;;;;;;1.63;0.70;;;8.90;99.90;;;;;;5091804;28;20453;-72
2023/01/12 07:48:15;;;;;;;1.20;0.63;;;8.90;99.90;;;;;;5091231;28;20543;-72
2023/01/12 07:50:42;;;;;;;2.30;0.87;;;8.90;99.90;;;;;;5091249;28;20551;-72
2023/01/12 07:53:08;;;;;;;1.63;1.33;;;8.90;99.90;;;;;;5091163;28;20452;-72
2023/01/12 07:55:38;;;;;;;3.37;0.83;;;8.90;99.90;;;;;;5091590;28;20494;-72
2023/01/12 07:58:07;;;;;;;2.30;0.90;;;8.90;99.90;;;;;;5090971;28;20443;-71
2023/01/12 08:00:34;;;;;;;3.27;0.80;;;8.90;99.90;;;;;;5091302;28;20487;-72
2023/01/12 08:03:06;;;;;;;2.17;1.13;;;8.90;99.90;;;;;;5091960;28;20800;-72
2023/01/12 08:05:33;;;;;;;1.83;0.63;;;8.80;99.90;;;;;;5091795;28;20456;-72
2023/01/12 08:08:00;;;;;;;2.60;0.67;;;8.90;99.90;;;;;;5091684;28;20809;-72
2023/01/12 08:10:27;;;;;;;0.90;0.60;;;8.80;99.90;;;;;;5090555;28;20437;-72
2023/01/12 08:12:55;;;;;;;1.53;1.07;;;8.80;99.90;;;;;;5091510;28;20483;-72
2023/01/12 08:15:23;;;;;;;1.30;0.77;;;8.90;99.90;;;;;;5090383;28;20486;-72
2023/01/12 08:17:54;;;;;;;1.70;0.63;;;8.90;99.90;;;;;;5091074;28;20452;-72
2023/01/12 08:20:25;;;;;;;5.30;0.80;;;8.90;99.90;;;;;;5090469;28;20433;-72
2023/01/12 08:22:57;;;;;;;7.10;1.40;;;8.90;99.90;;;;;;5091469;28;20436;-72
2023/01/12 08:25:26;;;;;;;1.53;0.70;;;8.90;99.90;;;;;;5078092;28;20950;-72
2023/01/12 08:27:59;;;;;;;2.50;0.70;;;8.90;99.90;;;;;;5090950;28;20510;-72
2023/01/12 08:30:28;;;;;;;1.43;0.80;;;8.90;99.90;;;;;;5090468;28;20445;-72
2023/01/12 08:32:56;;;;;;;1.33;1.10;;;8.90;99.90;;;;;;5091488;28;20448;-72
2023/01/12 08:35:27;;;;;;;3.43;1.03;;;9.00;99.90;;;;;;5094617;28;20484;-72
2023/01/12 08:37:55;;;;;;;3.43;1.00;;;9.00;99.90;;;;;;5095524;28;20948;-72
2023/01/12 08:40:22;;;;;;;1.57;0.80;;;9.00;99.90;;;;;;5094527;28;20452;-72
2023/01/12 08:42:49;;;;;;;1.27;0.67;;;9.00;99.90;;;;;;5094741;28;20940;-72
2023/01/12 08:45:19;;;;;;;3.00;0.80;;;9.00;99.90;;;;;;5094902;28;20448;-72
2023/01/12 08:47:47;;;;;;;2.83;1.20;;;9.00;99.90;;;;;;5095653;28;20446;-72
2023/01/12 08:50:14;;;;;;;6.20;1.10;;;9.00;99.90;;;;;;5094415;28;20543;-72
2023/01/12 08:52:41;;;;;;;1.20;1.10;;;9.00;99.90;;;;;;5095341;28;20448;-72
2023/01/12 08:55:10;;;;;;;0.80;0.60;;;9.00;99.90;;;;;;5094430;28;20487;-72
2023/01/12 08:57:37;;;;;;;3.53;0.93;;;9.00;99.90;;;;;;5094873;28;20441;-72
2023/01/12 09:00:06;;;;;;;3.77;1.77;;;9.00;99.90;;;;;;5094886;28;20478;-72
2023/01/12 09:02:34;;;;;;;2.20;1.00;;;9.20;99.90;;;;;;5095099;28;20440;-72
2023/01/12 09:05:01;;;;;;;1.53;0.80;;;9.20;99.90;;;;;;5094821;28;20962;-72
2023/01/12 09:07:27;;;;;;;2.50;0.60;;;9.20;99.90;;;;;;5094393;28;20444;-72
2023/01/12 09:09:54;;;;;;;0.70;0.50;;;9.20;99.90;;;;;;5094375;28;20735;-72
2023/01/12 09:12:21;;;;;;;5.17;1.13;;;9.20;99.90;;;;;;5094397;28;20453;-72
2023/01/12 09:14:48;;;;;;;1.60;0.70;;;9.20;99.90;;;;;;5094519;28;20450;-73
2023/01/12 09:17:15;;;;;;;6.70;1.13;;;9.20;99.90;;;;;;5093861;28;20449;-72
2023/01/12 09:19:46;;;;;;;0.90;0.50;;;9.20;99.90;;;;;;5094334;28;20449;-72
2023/01/12 09:22:13;;;;;;;1.63;0.93;;;9.20;99.90;;;;;;5093991;28;20476;-72
2023/01/12 09:24:40;;;;;;;1.07;0.73;;;9.20;99.90;;;;;;5094252;28;20452;-73
2023/01/12 09:27:07;;;;;;;4.23;0.80;;;9.20;99.90;;;;;;5093569;28;20478;-72
2023/01/12 09:29:34;;;;;;;1.80;0.90;;;9.30;99.90;;;;;;5093961;28;20499;-72
2023/01/12 09:32:01;;;;;;;1.43;0.80;;;9.30;99.90;;;;;;5094723;28;20441;-73
2023/01/12 09:34:27;;;;;;;12.53;1.10;;;9.40;99.90;;;;;;5093542;28;20487;-72
2023/01/12 09:36:56;;;;;;;1.30;0.50;;;9.40;99.90;;;;;;5094389;28;20484;-72
2023/01/12 09:39:22;;;;;;;2.60;0.97;;;9.40;99.90;;;;;;5093294;28;20924;-72
2023/01/12 09:47:32;;;;;;;1.87;0.90;;;9.50;99.90;;;;;;5093403;28;20452;-72
2023/01/12 09:50:04;;;;;;;2.00;0.77;;;9.50;99.90;;;;;;5094234;28;20449;-73
2023/01/12 09:52:35;;;;;;;5.73;1.00;;;9.60;99.90;;;;;;5094309;28;20486;-73
2023/01/12 09:55:03;;;;;;;2.10;0.70;;;9.60;99.90;;;;;;5094201;28;20455;-73
2023/01/12 09:58:08;;;;;;;4.13;0.90;;;9.60;99.90;;;;;;5094206;28;20519;-72
2023/01/12 10:00:35;;;;;;;8.30;0.97;;;9.70;99.90;;;;;;5093388;28;20444;-72
2023/01/12 10:03:13;;;;;;;1.90;0.80;;;9.70;99.90;;;;;;5094024;28;20463;-72
2023/01/12 10:05:44;;;;;;;1.70;0.70;;;9.80;94.90;;;;;;5093853;28;20446;-72
2023/01/12 10:08:22;;;;;;;3.63;0.87;;;9.80;87.10;;;;;;5093557;28;20796;-72
2023/01/12 10:11:03;;;;;;;5.77;1.00;;;9.80;42.60;;;;;;5093365;28;20450;-72
2023/01/12 10:13:48;;;;;;;1.10;0.70;;;9.90;39.70;;;;;;5093839;28;20459;-72
2023/01/12 10:16:19;;;;;;;0.83;0.70;;;10.00;19.70;;;;;;5092790;28;20985;-72
2023/01/12 10:18:49;;;;;;;2.03;0.60;;;9.90;5.80;;;;;;5093592;28;20446;-72
2023/01/12 10:21:16;;;;;;;4.23;1.07;;;10.00;1.00;;;;;;5092727;28;20464;-72
2023/01/12 10:23:44;;;;;;;1.00;0.70;;;10.00;1.00;;;;;;5093596;28;20447;-72
2023/01/12 10:26:18;;;;;;;2.87;0.80;;;10.00;1.00;;;;;;5092900;28;20541;-72
2023/01/12 10:28:46;;;;;;;0.70;0.50;;;10.00;1.00;;;;;;5093024;28;20458;-72
2023/01/12 10:31:19;;;;;;;1.13;0.60;;;10.10;1.00;;;;;;5092333;28;20467;-72
2023/01/12 10:34:02;;;;;;;4.23;1.00;;;10.10;1.00;;;;;;5093553;28;20777;-72
2023/01/12 10:36:29;;;;;;;1.23;0.80;;;10.10;1.00;;;;;;5092878;28;20482;-73
2023/01/12 10:39:02;;;;;;;1.43;1.20;;;10.20;1.00;;;;;;5093304;28;20453;-73
2023/01/12 10:41:30;;;;;;;1.53;0.80;;;10.20;1.00;;;;;;5092122;28;20477;-72
2023/01/12 10:44:14;;;;;;;1.53;0.87;;;10.20;1.00;;;;;;5092665;28;20490;-73
2023/01/12 10:46:40;;;;;;;0.80;0.63;;;10.20;1.00;;;;;;5081959;28;20455;-73
2023/01/12 10:49:19;;;;;;;0.90;0.60;;;10.20;1.00;;;;;;5091530;28;20955;-72
2023/01/12 10:51:56;;;;;;;4.00;1.20;;;10.20;1.00;;;;;;5092968;28;20446;-73
2023/01/12 10:54:27;;;;;;;0.70;0.60;;;10.20;1.00;;;;;;5092295;28;20470;-73
2023/01/12 10:56:58;;;;;;;2.10;0.90;;;10.30;1.00;;;;;;5092076;28;20876;-73
2023/01/12 10:59:28;;;;;;;4.07;1.10;;;10.30;1.00;;;;;;5091629;28;20898;-73
2023/01/12 11:02:12;;;;;;;1.27;0.83;;;10.30;1.00;;;;;;5092519;28;20535;-73
2023/01/12 11:04:41;;;;;;;0.80;0.60;;;10.30;1.00;;;;;;5092764;28;20782;-73
2023/01/12 11:07:11;;;;;;;1.03;0.63;;;10.30;1.00;;;;;;5092028;28;20535;-72
2023/01/12 11:09:40;;;;;;;4.53;0.83;;;10.30;1.00;;;;;;5092405;28;20818;-73
2023/01/12 11:12:24;;;;;;;1.43;0.70;;;10.30;1.00;;;;;;5091736;28;20456;-72
2023/01/12 11:14:58;;;;;;;1.37;0.63;;;;;;;;;;5092476;28;20453;-73
2023/01/12 11:17:32;;;;;;;1.10;0.70;;;;;;;;;;5079259;28;20531;-73
2023/01/12 11:20:01;;;;;;;2.70;1.10;;;;;;;;;;5091690;28;20491;-73
2023/01/12 11:22:31;;;;;;;0.77;0.57;;;10.40;1.00;;;;;;5091763;28;20508;-73
2023/01/12 11:25:04;;;;;;;3.50;0.70;;;10.40;1.00;;;;;;5092251;28;20442;-73
2023/01/12 11:27:35;;;;;;;0.70;0.50;;;10.50;1.00;;;;;;5092483;28;20447;-72
2023/01/12 11:30:11;;;;;;;0.90;0.47;;;10.40;1.00;;;;;;5091466;28;20437;-73
2023/01/12 11:32:42;;;;;;;0.73;0.50;;;10.40;1.00;;;;;;5092162;28;20440;-73
2023/01/12 11:35:22;;;;;;;1.87;0.93;;;10.40;1.00;;;;;;5091315;28;20952;-72
2023/01/12 11:37:52;;;;;;;0.70;0.50;;;10.40;1.00;;;;;;5092026;28;20480;-73
2023/01/12 11:40:28;;;;;;;3.27;0.90;;;10.40;1.00;;;;;;5091016;28;20819;-72
2023/01/12 11:45:50;;;;;;;0.83;0.60;;;10.40;1.00;;;;;;5091697;28;20425;-71
2023/01/12 11:48:23;;;;;;;0.70;0.50;;;10.40;1.00;;;;;;5091476;28;20442;-70
2023/01/12 11:50:53;;;;;;;0.90;0.60;;;10.40;1.00;;;;;;5091490;28;20436;-71
2023/01/12 11:53:23;;;;;;;1.03;0.60;;;10.50;1.00;;;;;;5091039;28;20454;-71
2023/01/12 11:56:08;;;;;;;3.60;1.40;;;10.50;1.00;;;;;;5091841;28;20456;-71
2023/01/12 11:58:41;;;;;;;1.03;0.60;;;10.30;1.00;;;;;;5091629;28;20435;-73
2023/01/12 12:01:16;;;;;;;1.43;0.50;;;10.40;1.00;;;;;;5078157;28;20441;-70
2023/01/12 12:03:54;;;;;;;2.80;1.30;;;10.30;1.00;;;;;;5091522;28;20445;-71
2023/01/12 12:06:45;;;;;;;2.10;0.60;;;10.30;1.00;;;;;;5090785;28;20955;-72
2023/01/12 12:09:17;;;;;;;0.60;0.40;;;;;;;;;;5053497;28;20450;-71
2023/01/12 12:11:48;;;;;;;0.93;0.50;;;;;;;;;;5091311;28;20464;-71
2023/01/12 12:14:29;;;;;;;0.70;0.50;;;10.30;1.00;;;;;;5090854;28;20447;-71
2023/01/12 12:17:00;;;;;;;1.23;0.60;;;;;;;;;;5090917;28;20961;-71
2023/01/12 12:19:35;;;;;;;1.17;0.50;;;10.30;1.00;;;;;;5090579;28;20525;-71
2023/01/12 12:22:12;;;;;;;0.90;0.60;;;10.30;1.00;;;;;;5091216;28;20952;-72
2023/01/12 12:25:00;;;;;;;0.70;0.40;;;10.30;1.00;;;;;;5090970;28;20447;-71
2023/01/12 12:27:42;;;;;;;0.77;0.47;;;10.40;1.00;;;;;;5090911;28;20444;-72
2023/01/12 12:30:26;;;;;;;1.07;0.70;;;10.40;1.00;;;;;;5090132;28;20454;-71
2023/01/12 12:33:00;;;;;;;1.87;1.17;;;10.30;1.00;;;;;;5091224;28;20443;-71
2023/01/12 12:35:51;;;;;;;0.80;0.60;;;10.40;1.00;;;;;;5090622;28;20448;-71
2023/01/12 12:38:32;;;;;;;0.73;0.50;;;10.40;1.00;;;;;;5090652;28;20546;-71
2023/01/12 12:47:07;;;;;;;1.00;0.60;;;10.40;1.00;;;;;;5091056;28;20433;-72
2023/01/12 12:49:37;;;;;;;3.37;0.67;;;10.50;1.00;;;;;;5090731;28;20547;-71
2023/01/12 12:52:04;;;;;;;0.60;0.40;;;10.50;1.00;;;;;;5091328;28;20484;-72
2023/01/12 12:54:32;;;;;;;1.50;0.50;;;10.50;1.00;;;;;;5078280;28;20450;-72
2023/01/12 12:56:59;;;;;;;3.47;0.80;;;10.60;1.00;;;;;;5090807;28;20485;-73
2023/01/12 12:59:53;;;;;;;0.70;0.50;;;10.50;1.00;;;;;;5089622;28;20448;-74
2023/01/12 13:02:33;;;;;;;0.60;0.40;;;10.60;1.00;;;;;;5090121;28;20456;-71
2023/01/12 13:05:09;;;;;;;1.40;0.60;;;10.60;1.00;;;;;;5091223;28;20440;-72
2023/01/12 13:07:42;;;;;;;0.60;0.40;;;10.60;1.00;;;;;;5078605;28;20460;-71
2023/01/12 13:10:29;;;;;;;0.60;0.43;;;10.60;1.00;;;;;;5090015;28;20450;-71
2023/01/12 13:12:57;;;;;;;6.33;1.07;;;;;;;;;;5090501;28;20458;-71
2023/01/12 13:15:28;;;;;;;1.63;0.50;;;;;;;;;;5089817;28;20449;-71
2023/01/12 13:17:55;;;;;;;1.00;0.63;;;;;;;;;;5090860;28;20536;-70
2023/01/12 13:20:40;;;;;;;3.33;0.63;;;;;;;;;;5092285;28;20928;-73
2023/01/12 13:23:22;;;;;;;1.00;0.60;;;;;;;;;;5094024;28;20440;-73
2023/01/12 13:25:56;;;;;;;9.90;1.10;;;;;;;;;;5093645;28;20800;-72
2023/01/12 13:28:23;;;;;;;3.73;1.10;;;10.60;1.00;;;;;;5093683;28;20436;-73
2023/01/12 13:30:52;;;;;;;0.70;0.50;;;10.60;68.20;;;;;;5094335;28;20788;-72
2023/01/12 13:33:25;;;;;;;1.13;0.60;;;10.60;68.60;;;;;;5093561;28;20450;-71
2023/01/12 13:36:08;;;;;;;1.17;0.50;;;;;;;;;;5094024;28;20503;-71
2023/01/12 13:38:53;;;;;;;1.47;0.60;;;;;;;;;;5094006;28;21013;-72
2023/01/12 13:44:10;;;;;;;0.90;0.47;;;;;;;;;;5093417;28;20471;-71
2023/01/12 13:46:42;;;;;;;3.27;1.33;;;;;;;;;;5094457;28;20448;-71
2023/01/12 13:49:24;;;;;;;1.83;0.60;;;;;;;;;;5093176;28;20559;-70
2023/01/12 13:51:55;;;;;;;0.70;0.57;;;;;;;;;;5094032;28;20452;-71
2023/01/12 13:54:22;;;;;;;0.77;0.40;;;;;;;;;;5093084;28;20926;-71
2023/01/12 13:56:53;;;;;;;1.87;0.50;;;;;;;;;;5093959;28;20486;-71
2023/01/12 13:59:20;;;;;;;1.37;0.80;;;;;;;;;;5092937;28;20445;-71
2023/01/12 14:01:49;;;;;;;0.70;0.60;;;;;;;;;;5093431;28;20458;-71
2023/01/12 14:04:22;;;;;;;1.13;0.90;;;;;;;;;;5079325;28;20962;-71
2023/01/12 14:06:56;;;;;;;0.67;0.43;;;;;;;;;;5093854;28;20447;-71
2023/01/12 14:09:25;;;;;;;2.60;0.63;;;;;;;;;;5092930;28;20441;-71
2023/01/12 14:12:06;;;;;;;0.70;0.50;;;;;;;;;;5093477;28;20452;-71